createdAt,value
2017-12-19T00:00:38.010Z,21.1
2017-12-19T00:01:39.634Z,21.1
2017-12-19T00:02:40.973Z,21.1
2017-12-19T00:03:42.592Z,21.1
2017-12-19T00:04:44.486Z,21.2
2017-12-19T00:05:45.826Z,21.1
2017-12-19T00:06:47.153Z,21.1
2017-12-19T00:07:49.043Z,21.1
2017-12-19T00:08:50.662Z,21.1
2017-12-19T00:09:52.559Z,21.2
2017-12-19T00:10:54.177Z,21.1
2017-12-19T00:11:56.072Z,21.2
2017-12-19T00:12:57.966Z,21.1
2017-12-19T00:13:59.567Z,21.1
2017-12-19T00:15:01.461Z,21.1
2017-12-19T00:16:03.085Z,21.1
2017-12-19T00:17:04.706Z,21.1
2017-12-19T00:18:06.598Z,21.1
2017-12-19T00:19:08.195Z,21.2
2017-12-19T00:20:10.090Z,21.1
2017-12-19T00:21:11.688Z,21.1
2017-12-19T00:22:13.282Z,21.2
2017-12-19T00:23:15.181Z,21.1
2017-12-19T00:24:16.801Z,21.1
2017-12-19T00:25:18.697Z,21.1
2017-12-19T00:26:20.297Z,21.2
2017-12-19T00:27:21.920Z,21.1
2017-12-19T00:28:23.816Z,21.1
2017-12-19T00:29:25.716Z,21.1
2017-12-19T00:30:27.064Z,21.2
2017-12-19T00:31:28.665Z,21.1
2017-12-19T00:32:29.710Z,21.1
2017-12-19T00:33:31.606Z,21.2
2017-12-19T00:34:33.502Z,21.1
2017-12-19T00:35:34.544Z,21.1
2017-12-19T00:36:35.863Z,21.2
2017-12-19T00:37:37.481Z,21.2
2017-12-19T00:38:39.105Z,21
2017-12-19T00:39:41.003Z,21.1
2017-12-19T00:40:42.622Z,21.2
2017-12-19T00:41:44.242Z,21.2
2017-12-19T00:42:46.138Z,21.1
2017-12-19T00:43:48.038Z,21.1
2017-12-19T00:44:49.936Z,21.1
2017-12-19T00:45:51.834Z,21.1
2017-12-19T00:46:53.456Z,21.1
2017-12-19T00:47:55.352Z,21
2017-12-19T00:48:57.252Z,21.1
2017-12-19T00:49:59.152Z,21.1
2017-12-19T00:51:00.472Z,21
2017-12-19T00:52:01.817Z,21.1
2017-12-19T00:53:03.158Z,21.2
2017-12-19T00:54:05.054Z,21.2
2017-12-19T00:55:06.370Z,21.1
2017-12-19T00:56:08.266Z,21.1
2017-12-19T00:57:09.618Z,21.1
2017-12-19T00:58:10.960Z,21.1
2017-12-19T00:59:12.583Z,21.1
2017-12-19T01:00:14.478Z,21
2017-12-19T01:03:16.895Z,21.1
2017-12-19T01:04:18.512Z,21.1
2017-12-19T01:05:20.407Z,21.1
2017-12-19T01:06:21.451Z,21
2017-12-19T01:07:23.345Z,21.1
2017-12-19T01:08:25.242Z,21.1
2017-12-19T01:09:26.283Z,21.2
2017-12-19T01:10:27.903Z,21.1
2017-12-19T01:11:29.497Z,21
2017-12-19T01:12:31.092Z,21.2
2017-12-19T01:13:32.986Z,21.1
2017-12-19T01:14:34.880Z,21
2017-12-19T01:15:36.777Z,21.2
2017-12-19T01:16:38.095Z,21.1
2017-12-19T01:17:39.990Z,21
2017-12-19T01:18:41.586Z,21
2017-12-19T01:19:43.182Z,21.1
2017-12-19T01:20:44.225Z,21.1
2017-12-19T01:21:45.824Z,21.1
2017-12-19T01:22:47.469Z,21.1
2017-12-19T01:23:49.364Z,21.1
2017-12-19T01:24:50.981Z,21.1
2017-12-19T01:25:52.600Z,21.1
2017-12-19T01:26:53.643Z,21
2017-12-19T01:27:55.271Z,21.1
2017-12-19T01:28:57.165Z,21.1
2017-12-19T01:29:58.760Z,21.1
2017-12-19T01:31:00.359Z,21
2017-12-19T01:32:01.983Z,21
2017-12-19T01:33:03.594Z,21.1
2017-12-19T01:34:04.932Z,21.1
2017-12-19T01:35:06.831Z,21.2
2017-12-19T01:36:08.146Z,21.1
2017-12-19T01:37:10.042Z,21
2017-12-19T01:38:11.659Z,21
2017-12-19T01:39:13.275Z,21.1
2017-12-19T01:40:15.170Z,21.1
2017-12-19T01:41:16.513Z,21.1
2017-12-19T01:42:18.409Z,21
2017-12-19T01:43:20.006Z,21.1
2017-12-19T01:44:21.621Z,21.2
2017-12-19T01:45:23.250Z,21.1
2017-12-19T01:46:24.868Z,21
2017-12-19T01:47:26.762Z,21.1
2017-12-19T01:48:28.379Z,21.1
2017-12-19T01:49:30.274Z,21.1
2017-12-19T01:50:31.891Z,21.1
2017-12-19T01:51:33.789Z,21.1
2017-12-19T01:52:35.176Z,21.1
2017-12-19T01:53:36.499Z,21
2017-12-19T01:54:38.096Z,21.1
2017-12-19T01:55:40.029Z,21.2
2017-12-19T01:56:41.930Z,21.2
2017-12-19T01:57:43.828Z,21.2
2017-12-19T01:58:45.163Z,21.2
2017-12-19T01:59:46.779Z,21.2
2017-12-19T02:00:48.677Z,21.1
2017-12-19T02:01:50.272Z,21.2
2017-12-19T02:02:51.315Z,21.2
2017-12-19T02:03:52.929Z,21.2
2017-12-19T02:04:54.823Z,21.1
2017-12-19T02:05:56.423Z,21.2
2017-12-19T02:06:58.316Z,21.2
2017-12-19T02:07:59.987Z,21.1
2017-12-19T02:09:01.585Z,21
2017-12-19T02:10:02.903Z,21.2
2017-12-19T02:11:03.946Z,21.1
2017-12-19T02:12:05.563Z,21.1
2017-12-19T02:13:07.183Z,21.2
2017-12-19T02:14:08.223Z,21.1
2017-12-19T02:15:10.120Z,21.1
2017-12-19T02:16:12.014Z,21.1
2017-12-19T02:17:13.961Z,21.2
2017-12-19T02:18:15.577Z,21.1
2017-12-19T02:19:17.507Z,21.2
2017-12-19T02:20:19.106Z,21.1
2017-12-19T02:21:21.002Z,21.2
2017-12-19T02:22:22.600Z,21.2
2017-12-19T02:23:24.216Z,21
2017-12-19T02:24:25.831Z,21.1
2017-12-19T02:25:27.452Z,21.2
2017-12-19T02:26:29.068Z,21.2
2017-12-19T02:27:30.406Z,21.2
2017-12-19T02:28:32.303Z,21.2
2017-12-19T02:29:33.920Z,21.1
2017-12-19T02:30:35.586Z,21.1
2017-12-19T02:31:37.480Z,21.1
2017-12-19T02:32:39.382Z,21.1
2017-12-19T02:33:41.004Z,21.2
2017-12-19T02:34:42.899Z,21.1
2017-12-19T02:35:44.516Z,21.2
2017-12-19T02:36:46.408Z,21.2
2017-12-19T02:37:48.300Z,21.2
2017-12-19T02:38:50.194Z,21.2
2017-12-19T02:39:51.535Z,21.2
2017-12-19T02:40:53.427Z,21.1
2017-12-19T02:41:54.767Z,21.1
2017-12-19T02:42:56.365Z,21.2
2017-12-19T02:43:58.261Z,21.2
2017-12-19T02:44:59.329Z,21.2
2017-12-19T02:46:01.223Z,21.1
2017-12-19T02:47:02.539Z,21.2
2017-12-19T02:48:04.434Z,21
2017-12-19T02:49:05.499Z,21.2
2017-12-19T02:50:06.816Z,21.2
2017-12-19T02:51:08.434Z,21.1
2017-12-19T02:52:10.032Z,21.2
2017-12-19T02:53:11.648Z,21.2
2017-12-19T02:54:13.309Z,21.1
2017-12-19T02:55:15.207Z,21.1
2017-12-19T02:56:16.246Z,21.1
2017-12-19T02:57:17.854Z,21.2
2017-12-19T02:58:19.474Z,21.1
2017-12-19T02:59:21.369Z,21.2
2017-12-19T03:00:22.414Z,21.1
2017-12-19T03:01:24.009Z,21.2
2017-12-19T03:02:25.672Z,21.1
2017-12-19T03:03:27.568Z,21.1
2017-12-19T03:04:28.606Z,21.1
2017-12-19T03:05:30.223Z,21.2
2017-12-19T03:06:32.147Z,21.1
2017-12-19T03:07:34.041Z,21.1
2017-12-19T03:08:35.938Z,21.1
2017-12-19T03:09:37.832Z,21.1
2017-12-19T03:10:39.729Z,21.2
2017-12-19T03:11:41.348Z,21.2
2017-12-19T03:12:42.965Z,21.2
2017-12-19T03:13:44.862Z,21.1
2017-12-19T03:14:46.478Z,21.1
2017-12-19T03:15:48.376Z,21.2
2017-12-19T03:16:49.714Z,21
2017-12-19T03:17:51.331Z,21.1
2017-12-19T03:18:53.226Z,21.1
2017-12-19T03:19:55.124Z,21.1
2017-12-19T03:20:56.740Z,21.1
2017-12-19T03:21:58.060Z,21.1
2017-12-19T03:22:59.379Z,21.1
2017-12-19T03:24:01.274Z,21.1
2017-12-19T03:25:02.872Z,21.1
2017-12-19T03:26:04.490Z,21.1
2017-12-19T03:27:06.384Z,21.1
2017-12-19T03:28:08.001Z,21.1
2017-12-19T03:29:09.896Z,21.1
2017-12-19T03:30:11.791Z,21.1
2017-12-19T03:31:13.690Z,21.1
2017-12-19T03:32:15.581Z,21.1
2017-12-19T03:33:17.477Z,21.1
2017-12-19T03:34:19.095Z,21.2
2017-12-19T03:35:20.413Z,21.1
2017-12-19T03:36:22.316Z,21.1
2017-12-19T03:37:24.210Z,21.1
2017-12-19T03:38:26.134Z,21.1
2017-12-19T03:39:27.728Z,21.1
2017-12-19T03:40:29.327Z,21.1
2017-12-19T03:41:31.221Z,21.1
2017-12-19T03:42:32.837Z,21.1
2017-12-19T03:43:34.455Z,21.1
2017-12-19T03:44:36.350Z,21.1
2017-12-19T03:45:37.970Z,21.1
2017-12-19T03:46:39.588Z,21.1
2017-12-19T03:47:41.185Z,21.1
2017-12-19T03:48:42.505Z,21.1
2017-12-19T03:49:44.398Z,21.1
2017-12-19T03:50:46.294Z,21.1
2017-12-19T03:51:47.664Z,21.1
2017-12-19T03:52:48.984Z,21
2017-12-19T03:53:50.601Z,21.1
2017-12-19T03:54:52.198Z,21.1
2017-12-19T03:55:53.539Z,21.1
2017-12-19T03:56:54.857Z,21.1
2017-12-19T03:57:56.199Z,21.1
2017-12-19T03:58:57.519Z,21.1
2017-12-19T03:59:59.114Z,21.1
2017-12-19T04:01:01.019Z,21.1
2017-12-19T04:02:02.633Z,21.1
2017-12-19T04:03:04.530Z,21.1
2017-12-19T04:04:05.596Z,21.1
2017-12-19T04:05:06.937Z,21.1
2017-12-19T04:06:08.556Z,21.1
2017-12-19T04:07:09.876Z,21.1
2017-12-19T04:08:11.196Z,21.1
2017-12-19T04:09:13.089Z,21.1
2017-12-19T04:10:14.983Z,21.1
2017-12-19T04:11:16.636Z,21.1
2017-12-19T04:12:18.224Z,21.1
2017-12-19T04:13:20.119Z,21.1
2017-12-19T04:14:22.014Z,21.1
2017-12-19T04:15:23.907Z,21.1
2017-12-19T04:16:24.945Z,21.1
2017-12-19T04:17:26.542Z,21.1
2017-12-19T04:18:27.884Z,21.1
2017-12-19T04:19:29.203Z,21.1
2017-12-19T04:20:31.098Z,21.1
2017-12-19T04:21:32.995Z,21.1
2017-12-19T04:22:33.763Z,21
2017-12-19T04:23:35.360Z,21.1
2017-12-19T04:24:37.029Z,21.1
2017-12-19T04:25:38.646Z,21.1
2017-12-19T04:26:40.266Z,21.1
2017-12-19T04:27:41.584Z,21.1
2017-12-19T04:28:43.481Z,21.1
2017-12-19T04:29:45.375Z,21.1
2017-12-19T04:30:47.269Z,21.1
2017-12-19T04:31:48.594Z,21.1
2017-12-19T04:32:50.485Z,21.1
2017-12-19T04:33:52.101Z,21.1
2017-12-19T04:34:53.999Z,21
2017-12-19T04:35:55.601Z,21.1
2017-12-19T04:36:57.211Z,21.1
2017-12-19T04:37:58.829Z,21.1
2017-12-19T04:39:00.426Z,21.1
2017-12-19T04:40:02.321Z,21.1
2017-12-19T04:41:03.639Z,21.1
2017-12-19T04:42:05.533Z,21.1
2017-12-19T04:43:07.151Z,21.1
2017-12-19T04:44:09.048Z,21.1
2017-12-19T04:45:10.663Z,21.1
2017-12-19T04:46:12.008Z,21.1
2017-12-19T04:47:13.900Z,21.1
2017-12-19T04:48:15.218Z,21.1
2017-12-19T04:49:16.836Z,21.1
2017-12-19T04:50:18.454Z,21.1
2017-12-19T04:51:20.356Z,21.1
2017-12-19T04:52:22.253Z,21.1
2017-12-19T04:53:24.150Z,21.1
2017-12-19T04:54:25.769Z,21.1
2017-12-19T04:55:27.387Z,21.1
2017-12-19T04:56:29.014Z,21.1
2017-12-19T04:57:30.912Z,21.1
2017-12-19T04:58:32.897Z,21.1
2017-12-19T04:59:33.882Z,21.1
2017-12-19T05:00:35.499Z,21.1
2017-12-19T05:01:37.116Z,21.1
2017-12-19T05:02:38.455Z,21.1
2017-12-19T05:03:40.073Z,21.1
2017-12-19T05:04:41.666Z,21.1
2017-12-19T05:05:43.284Z,21.1
2017-12-19T05:06:44.624Z,21.1
2017-12-19T05:07:46.242Z,21.1
2017-12-19T05:08:47.583Z,21.1
2017-12-19T05:09:49.202Z,21.1
2017-12-19T05:10:50.525Z,21.1
2017-12-19T05:11:52.418Z,21.1
2017-12-19T05:12:53.739Z,21.1
2017-12-19T05:13:54.780Z,21.1
2017-12-19T05:14:56.400Z,21.1
2017-12-19T05:15:57.740Z,21.1
2017-12-19T05:16:59.077Z,21.1
2017-12-19T05:18:00.675Z,21.1
2017-12-19T05:19:02.570Z,21.1
2017-12-19T05:20:04.167Z,21.1
2017-12-19T05:21:05.786Z,21.1
2017-12-19T05:22:07.381Z,21.1
2017-12-19T05:23:08.997Z,21.1
2017-12-19T05:24:10.892Z,21.2
2017-12-19T05:25:12.787Z,21.1
2017-12-19T05:26:14.407Z,21.2
2017-12-19T05:27:16.002Z,21.2
2017-12-19T05:28:17.597Z,21.2
2017-12-19T05:29:19.213Z,21.2
2017-12-19T05:30:21.111Z,21.2
2017-12-19T05:31:22.709Z,21.1
2017-12-19T05:32:24.602Z,21.2
2017-12-19T05:33:26.496Z,21
2017-12-19T05:34:28.095Z,21.1
2017-12-19T05:35:29.987Z,21.1
2017-12-19T05:36:31.581Z,21.2
2017-12-19T05:37:33.476Z,21.1
2017-12-19T05:38:35.092Z,21.1
2017-12-19T05:39:36.718Z,21.2
2017-12-19T05:40:38.331Z,21.1
2017-12-19T05:41:39.392Z,21.1
2017-12-19T05:42:41.035Z,21.1
2017-12-19T05:43:42.933Z,21
2017-12-19T05:44:44.550Z,21.1
2017-12-19T05:45:45.890Z,21.1
2017-12-19T05:46:47.786Z,21.1
2017-12-19T05:47:49.682Z,21.2
2017-12-19T05:48:51.277Z,21.1
2017-12-19T05:49:53.173Z,21.1
2017-12-19T05:50:54.514Z,21
2017-12-19T05:51:56.419Z,21.1
2017-12-19T05:52:58.040Z,21.1
2017-12-19T05:53:59.934Z,21.1
2017-12-19T05:55:01.829Z,21.1
2017-12-19T05:56:02.889Z,21.2
2017-12-19T05:57:04.512Z,21
2017-12-19T05:58:06.128Z,21.1
2017-12-19T05:59:07.748Z,21.1
2017-12-19T06:00:09.364Z,21.1
2017-12-19T06:01:10.986Z,21.1
2017-12-19T06:02:12.881Z,21
2017-12-19T06:03:14.787Z,21
2017-12-19T06:04:16.725Z,21.1
2017-12-19T06:05:18.369Z,21.1
2017-12-19T06:06:19.686Z,21
2017-12-19T06:07:21.005Z,21.1
2017-12-19T06:08:22.898Z,21.1
2017-12-19T06:09:24.794Z,21.1
2017-12-19T06:10:26.425Z,21.1
2017-12-19T06:11:27.759Z,21.1
2017-12-19T06:12:29.656Z,21.1
2017-12-19T06:13:31.286Z,21.1
2017-12-19T06:14:33.181Z,21.1
2017-12-19T06:15:34.798Z,21.1
2017-12-19T06:16:36.138Z,21.1
2017-12-19T06:17:37.736Z,21.1
2017-12-19T06:18:39.632Z,21.1
2017-12-19T06:19:41.250Z,21.2
2017-12-19T06:20:42.868Z,21.1
2017-12-19T06:21:44.779Z,21.2
2017-12-19T06:22:46.386Z,21.2
2017-12-19T06:23:47.707Z,21.1
2017-12-19T06:24:49.322Z,21.2
2017-12-19T06:25:51.218Z,21.1
2017-12-19T06:26:52.840Z,21.2
2017-12-19T06:27:54.732Z,21.2
2017-12-19T06:28:56.666Z,21.2
2017-12-19T06:29:58.558Z,21.1
2017-12-19T06:31:00.179Z,21.1
2017-12-19T06:32:02.076Z,21.1
2017-12-19T06:33:03.972Z,21.1
2017-12-19T06:34:05.589Z,21.1
2017-12-19T06:35:07.185Z,21.1
2017-12-19T06:36:08.813Z,21.1
2017-12-19T06:37:10.707Z,21.1
2017-12-19T06:38:12.023Z,21.1
2017-12-19T06:39:13.640Z,21.1
2017-12-19T06:40:15.234Z,21.1
2017-12-19T06:41:16.576Z,21.1
2017-12-19T06:42:17.640Z,21.1
2017-12-19T06:43:18.990Z,21.1
2017-12-19T06:44:20.312Z,21.1
2017-12-19T06:45:22.209Z,21.2
2017-12-19T06:46:23.829Z,21.1
2017-12-19T06:47:25.151Z,21.1
2017-12-19T06:48:26.196Z,21.1
2017-12-19T06:49:27.819Z,21.1
2017-12-19T06:50:29.421Z,21.1
2017-12-19T06:51:31.047Z,21.1
2017-12-19T06:52:32.670Z,21.1
2017-12-19T06:53:34.015Z,21.1
2017-12-19T06:54:35.900Z,21.1
2017-12-19T06:55:37.802Z,21.1
2017-12-19T06:56:39.701Z,21.1
2017-12-19T06:57:41.600Z,21.1
2017-12-19T06:58:43.223Z,21.1
2017-12-19T06:59:45.127Z,21.1
2017-12-19T07:00:47.024Z,21.1
2017-12-19T07:01:48.642Z,21.1
2017-12-19T07:02:50.246Z,21.1
2017-12-19T07:03:52.146Z,21.1
2017-12-19T07:04:54.047Z,21.1
2017-12-19T07:05:55.367Z,21.1
2017-12-19T07:06:56.986Z,21.1
2017-12-19T07:07:58.607Z,21.1
2017-12-19T07:09:00.234Z,21.1
2017-12-19T07:10:01.833Z,21
2017-12-19T07:11:03.456Z,21.1
2017-12-19T07:12:04.783Z,21.1
2017-12-19T07:13:06.565Z,21.1
2017-12-19T07:14:08.164Z,21.1
2017-12-19T07:15:10.059Z,21.1
2017-12-19T07:16:11.968Z,21.1
2017-12-19T07:17:13.884Z,21.1
2017-12-19T07:18:15.211Z,21.1
2017-12-19T07:19:16.833Z,21.1
2017-12-19T07:20:18.176Z,21.1
2017-12-19T07:21:19.780Z,21.2
2017-12-19T07:22:21.501Z,21.1
2017-12-19T07:23:23.398Z,21.2
2017-12-19T07:24:25.339Z,21
2017-12-19T07:25:26.942Z,21.2
2017-12-19T07:26:28.292Z,21.2
2017-12-19T07:27:29.913Z,21.1
2017-12-19T07:28:31.856Z,21.2
2017-12-19T07:29:33.186Z,21.1
2017-12-19T07:30:34.809Z,21.2
2017-12-19T07:31:36.722Z,21.1
2017-12-19T07:32:38.632Z,21.2
2017-12-19T07:33:40.576Z,21.1
2017-12-19T07:34:42.197Z,21.1
2017-12-19T07:35:43.542Z,21.1
2017-12-19T07:36:45.165Z,21.2
2017-12-19T07:37:46.787Z,21.1
2017-12-19T07:38:48.405Z,21.2
2017-12-19T07:39:49.548Z,21.2
2017-12-19T07:40:51.175Z,21.2
2017-12-19T07:41:53.071Z,21.3
2017-12-19T07:42:54.970Z,21.3
2017-12-19T07:43:56.034Z,21.2
2017-12-19T07:44:57.083Z,21.2
2017-12-19T07:45:58.982Z,21.3
2017-12-19T07:47:00.877Z,21.3
2017-12-19T07:48:02.479Z,21.3
2017-12-19T07:49:04.381Z,21.3
2017-12-19T07:50:06.045Z,21.2
2017-12-19T07:51:07.094Z,21.3
2017-12-19T07:52:08.710Z,21.3
2017-12-19T07:53:10.025Z,21.3
2017-12-19T07:54:11.086Z,21.2
2017-12-19T07:55:12.406Z,21.3
2017-12-19T07:56:14.026Z,21.3
2017-12-19T07:57:15.070Z,21.3
2017-12-19T07:58:16.690Z,21.3
2017-12-19T07:59:18.304Z,21.4
2017-12-19T08:00:19.645Z,21.3
2017-12-19T08:01:20.411Z,21.3
2017-12-19T08:02:22.304Z,21.3
2017-12-19T08:03:23.920Z,21.3
2017-12-19T08:04:25.826Z,21.3
2017-12-19T08:05:27.169Z,21.3
2017-12-19T08:06:28.771Z,21.3
2017-12-19T08:07:30.114Z,21.3
2017-12-19T08:08:31.433Z,21.3
2017-12-19T08:09:33.337Z,21.4
2017-12-19T08:10:35.229Z,21.4
2017-12-19T08:11:37.133Z,21.3
2017-12-19T08:12:38.744Z,21.3
2017-12-19T08:13:40.643Z,21.3
2017-12-19T08:14:42.539Z,21.3
2017-12-19T08:15:44.161Z,21.4
2017-12-19T08:16:45.787Z,21.3
2017-12-19T08:17:47.406Z,21.3
2017-12-19T08:18:49.005Z,21.3
2017-12-19T08:19:50.653Z,21.4
2017-12-19T08:20:52.273Z,21.3
2017-12-19T08:21:53.892Z,21.3
2017-12-19T08:22:56.006Z,21.3
2017-12-19T08:23:57.901Z,21.3
2017-12-19T08:24:59.799Z,21.3
2017-12-19T08:26:01.697Z,21.3
2017-12-19T08:27:03.589Z,21.3
2017-12-19T08:28:05.246Z,21.3
2017-12-19T08:29:06.863Z,21.3
2017-12-19T08:30:08.485Z,21.3
2017-12-19T08:31:10.105Z,21.3
2017-12-19T08:32:11.465Z,21.3
2017-12-19T08:33:13.087Z,21.3
2017-12-19T08:34:14.705Z,21.3
2017-12-19T08:35:16.047Z,21.3
2017-12-19T08:36:17.942Z,21.3
2017-12-19T08:37:19.268Z,21.3
2017-12-19T08:38:21.169Z,21.3
2017-12-19T08:39:23.062Z,21.3
2017-12-19T08:40:24.677Z,21.4
2017-12-19T08:41:26.001Z,21.4
2017-12-19T08:42:27.596Z,21.3
2017-12-19T08:43:28.916Z,21.3
2017-12-19T08:44:30.525Z,21.4
2017-12-19T08:45:31.867Z,21.3
2017-12-19T08:46:33.488Z,21.3
2017-12-19T08:47:34.808Z,21.3
2017-12-19T08:48:36.403Z,21.3
2017-12-19T08:49:37.779Z,21.4
2017-12-19T08:50:38.842Z,21.4
2017-12-19T08:51:40.182Z,21.3
2017-12-19T08:52:41.782Z,21.3
2017-12-19T08:53:43.104Z,21.3
2017-12-19T08:54:44.999Z,21.4
2017-12-19T08:55:46.894Z,21.3
2017-12-19T08:56:48.791Z,21.4
2017-12-19T08:57:49.842Z,21.4
2017-12-19T08:58:51.441Z,21.3
2017-12-19T08:59:53.060Z,21.3
2017-12-19T09:00:54.411Z,21.3
2017-12-19T09:01:56.020Z,21.3
2017-12-19T09:02:57.917Z,21.4
2017-12-19T09:03:59.817Z,21.3
2017-12-19T09:05:01.431Z,21.3
2017-12-19T09:06:02.486Z,21.3
2017-12-19T09:07:04.095Z,21.3
2017-12-19T09:08:05.997Z,21.3
2017-12-19T09:09:07.330Z,21.3
2017-12-19T09:10:09.324Z,21.3
2017-12-19T09:11:10.672Z,21.4
2017-12-19T09:12:12.026Z,21.3
2017-12-19T09:13:13.347Z,21.3
2017-12-19T09:14:15.247Z,21.3
2017-12-19T09:15:17.249Z,21.3
2017-12-19T09:16:18.848Z,21.3
2017-12-19T09:17:20.471Z,21.3
2017-12-19T09:18:22.112Z,21.3
2017-12-19T09:19:23.728Z,21.3
2017-12-19T09:20:25.140Z,21.3
2017-12-19T09:21:27.041Z,21.3
2017-12-19T09:22:28.384Z,21.4
2017-12-19T09:23:30.008Z,21.3
2017-12-19T09:24:31.630Z,21.3
2017-12-19T09:25:33.248Z,21.3
2017-12-19T09:26:34.871Z,21.3
2017-12-19T09:27:36.492Z,21.3
2017-12-19T09:28:37.814Z,21.3
2017-12-19T09:29:39.165Z,21.3
2017-12-19T09:30:40.765Z,21.3
2017-12-19T09:31:42.723Z,21.4
2017-12-19T09:32:44.626Z,21.3
2017-12-19T09:33:46.248Z,21.4
2017-12-19T09:34:47.867Z,21.3
2017-12-19T09:35:49.818Z,21.3
2017-12-19T09:36:51.147Z,21.3
2017-12-19T09:37:53.051Z,21.3
2017-12-19T09:38:54.675Z,21.3
2017-12-19T09:39:56.012Z,21.3
2017-12-19T09:40:57.906Z,21.3
2017-12-19T09:41:59.533Z,21.2
2017-12-19T09:43:00.859Z,21.3
2017-12-19T09:44:02.482Z,21.3
2017-12-19T09:45:04.074Z,21.3
2017-12-19T09:46:05.971Z,21.4
2017-12-19T09:47:07.870Z,21.3
2017-12-19T09:48:09.491Z,21.3
2017-12-19T09:49:11.095Z,21.3
2017-12-19T09:50:12.992Z,21.4
2017-12-19T09:51:14.895Z,21.4
2017-12-19T09:52:16.511Z,21.4
2017-12-19T09:53:17.553Z,21.5
2017-12-19T09:54:19.173Z,21.5
2017-12-19T09:55:21.124Z,21.4
2017-12-19T09:56:22.467Z,21.4
2017-12-19T09:57:24.364Z,21.4
2017-12-19T09:58:26.261Z,21.6
2017-12-19T09:59:27.880Z,21.4
2017-12-19T10:00:29.486Z,21.4
2017-12-19T10:01:31.124Z,21.4
2017-12-19T10:02:33.019Z,21.4
2017-12-19T10:03:34.624Z,21.5
2017-12-19T10:04:36.247Z,21.4
2017-12-19T10:05:38.154Z,21.5
2017-12-19T10:06:39.493Z,21.5
2017-12-19T10:07:41.392Z,21.5
2017-12-19T10:08:42.992Z,21.5
2017-12-19T10:09:44.310Z,21.5
2017-12-19T10:10:45.656Z,21.4
2017-12-19T10:11:47.262Z,21.5
2017-12-19T10:12:49.163Z,21.5
2017-12-19T10:13:50.510Z,21.6
2017-12-19T10:14:52.133Z,21.6
2017-12-19T10:15:54.252Z,21.5
2017-12-19T10:16:56.844Z,21.5
2017-12-19T10:17:58.689Z,21.6
2017-12-19T10:19:00.304Z,21.6
2017-12-19T10:20:05.100Z,21.5
2017-12-19T10:21:06.532Z,21.6
2017-12-19T10:22:08.744Z,21.6
2017-12-19T10:23:10.784Z,21.5
2017-12-19T10:24:12.738Z,21.6
2017-12-19T10:25:14.470Z,21.6
2017-12-19T10:26:16.371Z,21.6
2017-12-19T10:27:17.691Z,21.6
2017-12-19T10:28:19.293Z,21.6
2017-12-19T10:29:20.910Z,21.6
2017-12-19T10:30:22.808Z,21.6
2017-12-19T10:31:24.429Z,21.6
2017-12-19T10:32:26.338Z,21.6
2017-12-19T10:33:28.246Z,21.6
2017-12-19T10:34:30.148Z,21.5
2017-12-19T10:35:31.764Z,21.6
2017-12-19T10:36:33.091Z,21.6
2017-12-19T10:37:34.414Z,21.6
2017-12-19T10:38:36.317Z,21.6
2017-12-19T10:39:37.385Z,21.6
2017-12-19T10:40:38.722Z,21.5
2017-12-19T10:41:40.306Z,21.6
2017-12-19T10:42:41.932Z,21.6
2017-12-19T10:43:43.554Z,21.5
2017-12-19T10:44:45.177Z,21.6
2017-12-19T10:45:47.074Z,21.6
2017-12-19T10:46:48.973Z,21.7
2017-12-19T10:47:50.872Z,21.7
2017-12-19T10:48:52.218Z,21.7
2017-12-19T10:49:54.117Z,21.7
2017-12-19T10:50:56.012Z,21.7
2017-12-19T10:51:57.359Z,21.7
2017-12-19T10:52:59.261Z,21.7
2017-12-19T10:54:00.878Z,21.6
2017-12-19T10:55:02.218Z,21.6
2017-12-19T10:56:03.319Z,21.6
2017-12-19T10:57:05.318Z,21.7
2017-12-19T10:58:07.267Z,21.7
2017-12-19T10:59:08.587Z,21.7
2017-12-19T11:00:10.483Z,21.6
2017-12-19T11:01:12.103Z,21.7
2017-12-19T11:02:13.699Z,21.8
2017-12-19T11:03:15.599Z,21.7
2017-12-19T11:04:17.222Z,21.7
2017-12-19T11:05:18.567Z,21.7
2017-12-19T11:06:19.912Z,21.7
2017-12-19T11:07:21.235Z,21.7
2017-12-19T11:08:23.133Z,21.7
2017-12-19T11:09:24.753Z,21.7
2017-12-19T11:10:26.372Z,21.8
2017-12-19T11:11:27.990Z,21.7
2017-12-19T11:12:29.886Z,21.7
2017-12-19T11:13:31.785Z,21.8
2017-12-19T11:14:33.685Z,21.8
2017-12-19T11:15:35.584Z,21.7
2017-12-19T11:16:36.913Z,21.7
2017-12-19T11:17:38.813Z,21.7
2017-12-19T11:18:40.707Z,21.7
2017-12-19T11:19:42.608Z,21.8
2017-12-19T11:20:43.941Z,21.8
2017-12-19T11:21:45.834Z,21.8
2017-12-19T11:22:47.503Z,21.8
2017-12-19T11:23:49.137Z,21.8
2017-12-19T11:24:51.037Z,21.8
2017-12-19T11:25:52.639Z,21.7
2017-12-19T11:26:54.261Z,21.8
2017-12-19T11:27:55.880Z,21.8
2017-12-19T11:28:57.820Z,21.7
2017-12-19T11:29:59.445Z,21.8
2017-12-19T11:31:01.062Z,21.8
2017-12-19T11:32:02.960Z,21.8
2017-12-19T11:33:04.857Z,21.8
2017-12-19T11:34:06.486Z,21.8
2017-12-19T11:35:07.828Z,21.8
2017-12-19T11:36:09.924Z,21.9
2017-12-19T11:37:11.543Z,21.8
2017-12-19T11:38:13.169Z,21.8
2017-12-19T11:39:15.073Z,21.8
2017-12-19T11:40:16.465Z,21.8
2017-12-19T11:41:17.814Z,21.8
2017-12-19T11:42:19.431Z,21.8
2017-12-19T11:43:21.032Z,21.8
2017-12-19T11:44:22.651Z,21.7
2017-12-19T11:45:24.296Z,21.8
2017-12-19T11:46:26.700Z,21.8
2017-12-19T11:47:28.028Z,21.8
2017-12-19T11:48:29.653Z,21.8
2017-12-19T11:49:31.280Z,21.8
2017-12-19T11:50:32.761Z,21.7
2017-12-19T11:51:34.445Z,21.8
2017-12-19T11:52:36.070Z,21.9
2017-12-19T11:53:37.990Z,21.8
2017-12-19T11:54:39.644Z,21.8
2017-12-19T11:55:41.280Z,21.8
2017-12-19T11:56:42.901Z,21.8
2017-12-19T11:57:44.524Z,21.8
2017-12-19T11:58:46.144Z,21.8
2017-12-19T11:59:47.782Z,21.8
2017-12-19T12:00:49.684Z,21.7
2017-12-19T12:01:50.751Z,21.8
2017-12-19T12:02:52.372Z,21.8
2017-12-19T12:03:53.990Z,21.8
2017-12-19T12:04:55.338Z,21.7
2017-12-19T12:05:56.956Z,21.7
2017-12-19T12:06:58.856Z,21.7
2017-12-19T12:08:00.754Z,21.7
2017-12-19T12:09:02.724Z,21.7
2017-12-19T12:10:04.345Z,21.7
2017-12-19T12:11:05.944Z,21.7
2017-12-19T12:12:07.261Z,21.7
2017-12-19T12:13:09.163Z,21.8
2017-12-19T12:14:10.779Z,21.7
2017-12-19T12:15:12.131Z,21.7
2017-12-19T12:16:13.466Z,21.7
2017-12-19T12:17:14.823Z,21.8
2017-12-19T12:18:16.723Z,21.7
2017-12-19T12:19:18.375Z,21.7
2017-12-19T12:20:19.975Z,21.8
2017-12-19T12:21:21.394Z,21.7
2017-12-19T12:22:23.289Z,21.8
2017-12-19T12:23:24.886Z,21.8
2017-12-19T12:24:26.501Z,21.8
2017-12-19T12:25:28.122Z,21.8
2017-12-19T12:26:29.722Z,21.8
2017-12-19T12:27:31.070Z,21.9
2017-12-19T12:28:32.723Z,21.8
2017-12-19T12:29:34.046Z,21.9
2017-12-19T12:30:35.645Z,21.8
2017-12-19T12:31:37.264Z,21.9
2017-12-19T12:32:38.583Z,21.8
2017-12-19T12:33:40.479Z,21.9
2017-12-19T12:34:42.095Z,21.9
2017-12-19T12:35:43.447Z,21.9
2017-12-19T12:36:44.757Z,21.9
2017-12-19T12:37:46.656Z,21.8
2017-12-19T12:38:47.999Z,21.9
2017-12-19T12:39:49.619Z,21.9
2017-12-19T12:40:51.513Z,21.9
2017-12-19T12:41:53.132Z,21.8
2017-12-19T12:42:54.466Z,21.9
2017-12-19T12:43:55.785Z,21.9
2017-12-19T12:44:57.711Z,21.9
2017-12-19T12:45:59.489Z,21.8
2017-12-19T12:47:00.833Z,21.9
2017-12-19T12:48:02.157Z,21.9
2017-12-19T12:49:04.052Z,21.9
2017-12-19T12:50:05.949Z,21.9
2017-12-19T12:51:07.570Z,21.9
2017-12-19T12:52:09.192Z,21.8
2017-12-19T12:53:11.085Z,21.9
2017-12-19T12:54:12.702Z,21.8
2017-12-19T12:55:14.026Z,21.9
2017-12-19T12:56:15.970Z,21.9
2017-12-19T12:57:17.291Z,21.9
2017-12-19T12:58:19.183Z,21.9
2017-12-19T12:59:21.079Z,21.9
2017-12-19T13:00:22.976Z,21.9
2017-12-19T13:01:24.596Z,21.9
2017-12-19T13:02:26.192Z,21.8
2017-12-19T13:03:27.531Z,21.9
2017-12-19T13:04:29.148Z,21.9
2017-12-19T13:05:30.772Z,21.9
2017-12-19T13:06:32.438Z,21.9
2017-12-19T13:07:34.060Z,21.9
2017-12-19T13:08:35.953Z,21.9
2017-12-19T13:09:37.849Z,21.9
2017-12-19T13:10:39.449Z,21.9
2017-12-19T13:11:41.069Z,21.9
2017-12-19T13:12:42.417Z,21.9
2017-12-19T13:13:43.744Z,21.8
2017-12-19T13:14:45.363Z,22
2017-12-19T13:15:46.984Z,21.9
2017-12-19T13:16:48.602Z,21.9
2017-12-19T13:17:50.496Z,21.9
2017-12-19T13:18:52.096Z,21.8
2017-12-19T13:19:53.991Z,21.9
2017-12-19T13:20:55.893Z,21.9
2017-12-19T13:21:57.509Z,21.9
2017-12-19T13:22:59.132Z,22
2017-12-19T13:24:00.454Z,21.8
2017-12-19T13:25:02.048Z,21.9
2017-12-19T13:26:03.947Z,21.9
2017-12-19T13:27:05.541Z,21.9
2017-12-19T13:28:06.884Z,21.9
2017-12-19T13:29:08.503Z,21.9
2017-12-19T13:30:09.551Z,21.9
2017-12-19T13:31:11.148Z,21.9
2017-12-19T13:32:12.488Z,21.9
2017-12-19T13:33:14.109Z,22
2017-12-19T13:34:15.174Z,21.9
2017-12-19T13:35:16.795Z,21.8
2017-12-19T13:36:18.397Z,21.9
2017-12-19T13:37:20.014Z,21.9
2017-12-19T13:38:21.909Z,21.9
2017-12-19T13:39:23.540Z,21.9
2017-12-19T13:40:24.882Z,21.9
2017-12-19T13:41:26.223Z,21.9
2017-12-19T13:42:27.826Z,22
2017-12-19T13:43:29.449Z,21.9
2017-12-19T13:44:31.403Z,21.8